Seattle, WA (98101)

6:30 AM PST on December 25, 2014 (GMT -0800)
Herrera, Inc. | Change Station
CLOSE
Current Station
Personal Weather Station
Location: Seattle, WA
Elevation: 121 ft
Nearby Weather Stations

Elev 121 ft 47.62 °N, 122.34 °W | Updated 2 seconds ago

Overcast
Overcast
40.9 °F
Feels Like 41 °F
N
3.0
Wind Variable Wind from SSW
Gusts 8.0 mph

Today
High -- | Low -- °F
--% Chance of Precip.
Yesterday
High -- | Low -- °F
Precip. -- in
7:56 AM 4:22 PM
Waxing Crescent, 16% visible
Pressure 30.15 in
Visibility 10.0 miles
Clouds Few 900 ft
Mostly Cloudy 1400 ft
Overcast 2300 ft
Windchill 41 °F
Dew Point 38 °F
Humidity 91%
Rainfall 0.00 in
Snow Depth Not available.
UV 0 out of 12
Pollen .50 out of 12
Air Quality Not available.
Flu Activity Not available.
METAR KBFI 251353Z 10004KT 10SM FEW009 BKN014 OVC023 07/03 A3015 RMK AO2 SLP209 T00670033

More Conditions Fewer Conditions

Pressure 30.15 in
Visibility 10.0 miles
Clouds Few 900 ft
Mostly Cloudy 1400 ft
Overcast 2300 ft
Windchill 41 °F
Dew Point 38 °F
Humidity 91%
Rainfall 0.00 in
Snow Depth Not available.
UV 0 out of 12
Pollen .50 out of 12
Air Quality Not available.
Flu Activity Not available.
METAR KBFI 251353Z 10004KT 10SM FEW009 BKN014 OVC023 07/03 A3015 RMK AO2 SLP209 T00670033

More Conditions Fewer Conditions

10-Day Weather Forecast

Almanac

Astronomy

Dec. 25, 2014 Rise Set
Actual Time
Civil Twilight
Nautical Twilight
Astronomical Twilight
Moon
Length of Visible Light
Length of Day
Tomorrow will be .
, % of the Moon is Illuminated

Today's Extremes

State Highs State Lows

Community

WunderPhotos

Upload Photos

1,780,280 photos uploaded!

WunderBlogs® & News

Nearby

Air Quality

  Air Quality AQ Index Pollutant
Not available.

Snow Depth

Station Depth Elevation

Earthquake Activity

City Distance Mag. Time & Date
Minimum magnitude displayed is 2.5.

Coastal Water Temperatures

Place Temperature

Nearby Weather Stations